Terminal Aerodrome Forecast
Issued by NWS

Home | Current Version | Previous Version | Text Only | Print | Product List | Glossary On
Versions: 1 2 3 4 5 6 7 8 9 10 11 12
000
FTUS44 KOUN 300528
TAFGAG
TAF
KGAG 300528Z 3006/3106 11006KT P6SM BKN250
     FM300900 15008KT P6SM VCTS BKN060CB BKN250
     FM301300 19015KT P6SM SCT250
     FM310000 15011KT P6SM SCT250=

USA.gov is the U.S. government's official web portal to all federal, state and local government web resources and services.